sensor_id;sensor_type;location;lat;lon;timestamp;temperature;humidity
25668;DHT22;18003;-33.830;151.202;2023-04-16T00:01:19;19.50;99.90
25668;DHT22;18003;-33.830;151.202;2023-04-16T00:03:49;19.50;99.90
25668;DHT22;18003;-33.830;151.202;2023-04-16T00:06:19;19.50;99.90
25668;DHT22;18003;-33.830;151.202;2023-04-16T00:08:49;19.50;99.90
25668;DHT22;18003;-33.830;151.202;2023-04-16T00:11:19;19.50;99.90
25668;DHT22;18003;-33.830;151.202;2023-04-16T00:13:50;19.50;99.90
25668;DHT22;18003;-33.830;151.202;2023-04-16T00:16:20;19.50;99.90
25668;DHT22;18003;-33.830;151.202;2023-04-16T00:18:50;19.50;99.90
25668;DHT22;18003;-33.830;151.202;2023-04-16T00:21:20;19.50;99.90
25668;DHT22;18003;-33.830;151.202;2023-04-16T00:23:50;19.50;99.90
25668;DHT22;18003;-33.830;151.202;2023-04-16T00:26:20;19.60;99.90
25668;DHT22;18003;-33.830;151.202;2023-04-16T00:28:50;19.60;99.90
25668;DHT22;18003;-33.830;151.202;2023-04-16T00:31:32;19.60;99.90
25668;DHT22;18003;-33.830;151.202;2023-04-16T00:33:58;19.60;99.90
25668;DHT22;18003;-33.830;151.202;2023-04-16T00:36:28;19.60;99.90
25668;DHT22;18003;-33.830;151.202;2023-04-16T00:38:58;19.60;99.90
25668;DHT22;18003;-33.830;151.202;2023-04-16T00:41:28;19.60;99.90
25668;DHT22;18003;-33.830;151.202;2023-04-16T00:43:58;19.60;99.90
25668;DHT22;18003;-33.830;151.202;2023-04-16T00:46:28;19.60;99.90
25668;DHT22;18003;-33.830;151.202;2023-04-16T00:48:59;19.70;99.90
25668;DHT22;18003;-33.830;151.202;2023-04-16T00:51:30;19.70;99.90
25668;DHT22;18003;-33.830;151.202;2023-04-16T00:54:00;19.60;99.90
25668;DHT22;18003;-33.830;151.202;2023-04-16T00:56:30;19.70;99.90
25668;DHT22;18003;-33.830;151.202;2023-04-16T00:59:00;19.70;99.90
25668;DHT22;18003;-33.830;151.202;2023-04-16T01:01:30;19.70;99.90
25668;DHT22;18003;-33.830;151.202;2023-04-16T01:04:00;19.70;99.90
25668;DHT22;18003;-33.830;151.202;2023-04-16T01:06:30;19.70;99.90
25668;DHT22;18003;-33.830;151.202;2023-04-16T01:09:01;19.70;99.90
25668;DHT22;18003;-33.830;151.202;2023-04-16T01:11:30;19.70;99.90
25668;DHT22;18003;-33.830;151.202;2023-04-16T01:14:00;19.70;99.90
25668;DHT22;18003;-33.830;151.202;2023-04-16T01:16:31;19.70;99.90
25668;DHT22;18003;-33.830;151.202;2023-04-16T01:19:01;19.70;99.90
25668;DHT22;18003;-33.830;151.202;2023-04-16T01:21:31;19.80;99.90
25668;DHT22;18003;-33.830;151.202;2023-04-16T01:24:04;19.80;99.90
25668;DHT22;18003;-33.830;151.202;2023-04-16T01:26:34;19.80;99.90
25668;DHT22;18003;-33.830;151.202;2023-04-16T01:29:04;19.80;99.90
25668;DHT22;18003;-33.830;151.202;2023-04-16T01:31:35;19.80;99.90
25668;DHT22;18003;-33.830;151.202;2023-04-16T01:34:05;19.80;99.90
25668;DHT22;18003;-33.830;151.202;2023-04-16T01:36:35;19.80;99.90
25668;DHT22;18003;-33.830;151.202;2023-04-16T01:39:05;19.80;99.90
25668;DHT22;18003;-33.830;151.202;2023-04-16T01:41:36;19.80;99.90
25668;DHT22;18003;-33.830;151.202;2023-04-16T01:44:06;19.90;99.90
25668;DHT22;18003;-33.830;151.202;2023-04-16T01:46:37;19.90;99.90
25668;DHT22;18003;-33.830;151.202;2023-04-16T01:49:07;19.90;99.90
25668;DHT22;18003;-33.830;151.202;2023-04-16T01:51:38;19.90;99.90
25668;DHT22;18003;-33.830;151.202;2023-04-16T01:54:08;19.90;99.90
25668;DHT22;18003;-33.830;151.202;2023-04-16T01:56:38;19.90;99.90
25668;DHT22;18003;-33.830;151.202;2023-04-16T01:59:08;19.90;99.90
25668;DHT22;18003;-33.830;151.202;2023-04-16T02:01:38;19.90;99.90
25668;DHT22;18003;-33.830;151.202;2023-04-16T02:04:09;19.90;99.90
25668;DHT22;18003;-33.830;151.202;2023-04-16T02:06:39;19.90;99.90
25668;DHT22;18003;-33.830;151.202;2023-04-16T02:09:09;19.90;99.90
25668;DHT22;18003;-33.830;151.202;2023-04-16T02:11:39;20.00;99.90
25668;DHT22;18003;-33.830;151.202;2023-04-16T02:14:09;20.00;99.90
25668;DHT22;18003;-33.830;151.202;2023-04-16T02:16:39;20.00;99.90
25668;DHT22;18003;-33.830;151.202;2023-04-16T02:19:09;20.00;99.90
25668;DHT22;18003;-33.830;151.202;2023-04-16T02:21:39;20.00;99.90
25668;DHT22;18003;-33.830;151.202;2023-04-16T02:24:09;20.00;99.90
25668;DHT22;18003;-33.830;151.202;2023-04-16T02:26:39;20.00;99.90
25668;DHT22;18003;-33.830;151.202;2023-04-16T02:29:09;20.00;99.90
25668;DHT22;18003;-33.830;151.202;2023-04-16T02:31:40;20.00;99.90
25668;DHT22;18003;-33.830;151.202;2023-04-16T02:34:10;20.10;99.90
25668;DHT22;18003;-33.830;151.202;2023-04-16T02:36:40;20.00;99.90
25668;DHT22;18003;-33.830;151.202;2023-04-16T02:39:10;20.10;99.90
25668;DHT22;18003;-33.830;151.202;2023-04-16T02:41:40;20.00;99.90
25668;DHT22;18003;-33.830;151.202;2023-04-16T02:44:10;20.10;99.90
25668;DHT22;18003;-33.830;151.202;2023-04-16T02:46:40;20.10;99.90
25668;DHT22;18003;-33.830;151.202;2023-04-16T02:49:10;20.10;99.90
25668;DHT22;18003;-33.830;151.202;2023-04-16T02:51:41;20.10;99.90
25668;DHT22;18003;-33.830;151.202;2023-04-16T02:54:10;20.10;99.90
25668;DHT22;18003;-33.830;151.202;2023-04-16T02:56:41;20.10;99.90
25668;DHT22;18003;-33.830;151.202;2023-04-16T02:59:10;20.10;99.90
25668;DHT22;18003;-33.830;151.202;2023-04-16T03:01:40;20.10;99.90
25668;DHT22;18003;-33.830;151.202;2023-04-16T03:04:10;20.10;99.90
25668;DHT22;18003;-33.830;151.202;2023-04-16T03:06:40;20.10;99.90
25668;DHT22;18003;-33.830;151.202;2023-04-16T03:09:11;20.10;99.90
25668;DHT22;18003;-33.830;151.202;2023-04-16T03:11:40;20.10;99.90
25668;DHT22;18003;-33.830;151.202;2023-04-16T03:14:11;20.10;99.90
25668;DHT22;18003;-33.830;151.202;2023-04-16T03:16:41;20.10;99.90
25668;DHT22;18003;-33.830;151.202;2023-04-16T03:19:11;20.10;99.90
25668;DHT22;18003;-33.830;151.202;2023-04-16T03:21:41;20.10;99.90
25668;DHT22;18003;-33.830;151.202;2023-04-16T03:24:11;20.10;99.90
25668;DHT22;18003;-33.830;151.202;2023-04-16T03:26:41;20.10;99.90
25668;DHT22;18003;-33.830;151.202;2023-04-16T03:29:11;20.10;99.90
25668;DHT22;18003;-33.830;151.202;2023-04-16T03:31:42;20.10;99.90
25668;DHT22;18003;-33.830;151.202;2023-04-16T03:34:12;20.10;99.90
25668;DHT22;18003;-33.830;151.202;2023-04-16T03:36:42;20.20;99.90
25668;DHT22;18003;-33.830;151.202;2023-04-16T03:39:12;20.20;99.90
25668;DHT22;18003;-33.830;151.202;2023-04-16T03:41:42;20.20;99.90
25668;DHT22;18003;-33.830;151.202;2023-04-16T03:44:13;20.20;99.90
25668;DHT22;18003;-33.830;151.202;2023-04-16T03:46:43;20.20;99.90
25668;DHT22;18003;-33.830;151.202;2023-04-16T03:49:13;20.20;99.90
25668;DHT22;18003;-33.830;151.202;2023-04-16T03:51:43;20.20;99.90
25668;DHT22;18003;-33.830;151.202;2023-04-16T03:54:13;20.20;99.90
25668;DHT22;18003;-33.830;151.202;2023-04-16T03:56:43;20.20;99.90
25668;DHT22;18003;-33.830;151.202;2023-04-16T03:59:13;20.20;99.90
25668;DHT22;18003;-33.830;151.202;2023-04-16T04:01:43;20.20;99.90
25668;DHT22;18003;-33.830;151.202;2023-04-16T04:04:13;20.20;99.90
25668;DHT22;18003;-33.830;151.202;2023-04-16T04:06:44;20.20;99.90
25668;DHT22;18003;-33.830;151.202;2023-04-16T04:09:17;20.20;99.90
25668;DHT22;18003;-33.830;151.202;2023-04-16T04:11:47;20.20;99.90
25668;DHT22;18003;-33.830;151.202;2023-04-16T04:14:17;20.20;99.90
25668;DHT22;18003;-33.830;151.202;2023-04-16T04:16:47;20.20;99.90
25668;DHT22;18003;-33.830;151.202;2023-04-16T04:19:18;20.20;99.90
25668;DHT22;18003;-33.830;151.202;2023-04-16T04:21:48;20.20;99.90
25668;DHT22;18003;-33.830;151.202;2023-04-16T04:24:18;20.30;99.90
25668;DHT22;18003;-33.830;151.202;2023-04-16T04:26:48;20.30;99.90
25668;DHT22;18003;-33.830;151.202;2023-04-16T04:29:18;20.30;99.90
25668;DHT22;18003;-33.830;151.202;2023-04-16T04:31:48;20.30;99.90
25668;DHT22;18003;-33.830;151.202;2023-04-16T04:34:18;20.40;99.90
25668;DHT22;18003;-33.830;151.202;2023-04-16T04:36:48;20.40;99.90
25668;DHT22;18003;-33.830;151.202;2023-04-16T04:39:19;20.40;99.90
25668;DHT22;18003;-33.830;151.202;2023-04-16T04:41:49;20.40;99.90
25668;DHT22;18003;-33.830;151.202;2023-04-16T04:44:19;20.40;99.90
25668;DHT22;18003;-33.830;151.202;2023-04-16T04:46:49;20.30;99.90
25668;DHT22;18003;-33.830;151.202;2023-04-16T04:49:19;20.30;99.90
25668;DHT22;18003;-33.830;151.202;2023-04-16T04:51:49;20.30;99.90
25668;DHT22;18003;-33.830;151.202;2023-04-16T04:54:19;20.30;99.90
25668;DHT22;18003;-33.830;151.202;2023-04-16T04:56:49;20.30;99.90
25668;DHT22;18003;-33.830;151.202;2023-04-16T04:59:20;20.30;99.90
25668;DHT22;18003;-33.830;151.202;2023-04-16T05:01:51;20.30;99.90
25668;DHT22;18003;-33.830;151.202;2023-04-16T05:04:21;20.30;99.90
25668;DHT22;18003;-33.830;151.202;2023-04-16T05:06:51;20.30;99.90
25668;DHT22;18003;-33.830;151.202;2023-04-16T05:09:21;20.30;99.90
25668;DHT22;18003;-33.830;151.202;2023-04-16T05:11:58;20.30;99.90
25668;DHT22;18003;-33.830;151.202;2023-04-16T05:14:28;20.70;99.90
25668;DHT22;18003;-33.830;151.202;2023-04-16T05:16:58;21.10;99.90
25668;DHT22;18003;-33.830;151.202;2023-04-16T05:19:28;21.40;99.90
25668;DHT22;18003;-33.830;151.202;2023-04-16T05:21:58;21.50;99.90
25668;DHT22;18003;-33.830;151.202;2023-04-16T05:24:29;21.60;99.90
25668;DHT22;18003;-33.830;151.202;2023-04-16T05:26:59;21.70;99.90
25668;DHT22;18003;-33.830;151.202;2023-04-16T05:29:29;21.70;99.90
25668;DHT22;18003;-33.830;151.202;2023-04-16T05:31:59;21.80;99.90
25668;DHT22;18003;-33.830;151.202;2023-04-16T05:34:29;21.70;99.90
25668;DHT22;18003;-33.830;151.202;2023-04-16T05:37:00;21.70;99.90
25668;DHT22;18003;-33.830;151.202;2023-04-16T05:39:30;21.70;99.90
25668;DHT22;18003;-33.830;151.202;2023-04-16T05:42:00;21.70;99.90
25668;DHT22;18003;-33.830;151.202;2023-04-16T05:44:30;21.80;99.90
25668;DHT22;18003;-33.830;151.202;2023-04-16T05:47:00;21.80;99.90
25668;DHT22;18003;-33.830;151.202;2023-04-16T05:49:30;21.80;99.80
25668;DHT22;18003;-33.830;151.202;2023-04-16T05:52:00;21.90;99.90
25668;DHT22;18003;-33.830;151.202;2023-04-16T05:54:30;21.90;99.60
25668;DHT22;18003;-33.830;151.202;2023-04-16T05:57:00;21.90;99.10
25668;DHT22;18003;-33.830;151.202;2023-04-16T05:59:30;21.90;99.80
25668;DHT22;18003;-33.830;151.202;2023-04-16T06:02:01;21.90;99.90
25668;DHT22;18003;-33.830;151.202;2023-04-16T06:04:31;21.80;99.90
25668;DHT22;18003;-33.830;151.202;2023-04-16T06:07:03;21.70;99.90
25668;DHT22;18003;-33.830;151.202;2023-04-16T06:09:33;21.70;99.90
25668;DHT22;18003;-33.830;151.202;2023-04-16T06:12:03;21.70;99.90
25668;DHT22;18003;-33.830;151.202;2023-04-16T06:14:33;21.70;99.90
25668;DHT22;18003;-33.830;151.202;2023-04-16T06:17:04;21.70;99.90
25668;DHT22;18003;-33.830;151.202;2023-04-16T06:19:34;21.70;99.90
25668;DHT22;18003;-33.830;151.202;2023-04-16T06:22:04;21.60;99.90
25668;DHT22;18003;-33.830;151.202;2023-04-16T06:24:33;21.70;99.90
25668;DHT22;18003;-33.830;151.202;2023-04-16T06:27:03;21.70;99.90
25668;DHT22;18003;-33.830;151.202;2023-04-16T06:29:33;21.60;99.80
25668;DHT22;18003;-33.830;151.202;2023-04-16T06:32:04;21.60;99.20
25668;DHT22;18003;-33.830;151.202;2023-04-16T06:34:33;21.60;99.90
25668;DHT22;18003;-33.830;151.202;2023-04-16T06:37:04;21.60;99.90
25668;DHT22;18003;-33.830;151.202;2023-04-16T06:39:34;21.60;99.40
25668;DHT22;18003;-33.830;151.202;2023-04-16T06:42:04;21.50;99.50
25668;DHT22;18003;-33.830;151.202;2023-04-16T06:44:35;21.50;99.80
25668;DHT22;18003;-33.830;151.202;2023-04-16T06:47:05;21.50;99.80
25668;DHT22;18003;-33.830;151.202;2023-04-16T06:49:35;21.50;99.70
25668;DHT22;18003;-33.830;151.202;2023-04-16T06:52:06;21.40;99.50
25668;DHT22;18003;-33.830;151.202;2023-04-16T06:54:36;21.40;99.70
25668;DHT22;18003;-33.830;151.202;2023-04-16T06:57:06;21.50;99.60
25668;DHT22;18003;-33.830;151.202;2023-04-16T06:59:36;21.40;99.70
25668;DHT22;18003;-33.830;151.202;2023-04-16T07:02:07;21.40;99.90
25668;DHT22;18003;-33.830;151.202;2023-04-16T07:04:37;21.40;99.00
25668;DHT22;18003;-33.830;151.202;2023-04-16T07:07:08;21.40;99.40
25668;DHT22;18003;-33.830;151.202;2023-04-16T07:09:38;21.30;99.60
25668;DHT22;18003;-33.830;151.202;2023-04-16T07:12:08;21.30;99.60
25668;DHT22;18003;-33.830;151.202;2023-04-16T07:14:39;21.30;99.50
25668;DHT22;18003;-33.830;151.202;2023-04-16T07:17:09;21.30;99.40
25668;DHT22;18003;-33.830;151.202;2023-04-16T07:19:39;21.20;99.50
25668;DHT22;18003;-33.830;151.202;2023-04-16T07:22:09;21.30;99.30
25668;DHT22;18003;-33.830;151.202;2023-04-16T07:24:40;21.30;99.10
25668;DHT22;18003;-33.830;151.202;2023-04-16T07:27:10;21.30;99.40
25668;DHT22;18003;-33.830;151.202;2023-04-16T07:29:40;21.30;99.40
25668;DHT22;18003;-33.830;151.202;2023-04-16T07:32:10;21.20;98.70
25668;DHT22;18003;-33.830;151.202;2023-04-16T07:34:40;21.20;98.30
25668;DHT22;18003;-33.830;151.202;2023-04-16T07:37:10;21.20;98.40
25668;DHT22;18003;-33.830;151.202;2023-04-16T07:39:41;21.20;98.50
25668;DHT22;18003;-33.830;151.202;2023-04-16T07:42:12;21.20;98.20
25668;DHT22;18003;-33.830;151.202;2023-04-16T07:44:46;21.20;97.60
25668;DHT22;18003;-33.830;151.202;2023-04-16T07:47:16;21.20;98.20
25668;DHT22;18003;-33.830;151.202;2023-04-16T07:49:47;21.10;97.60
25668;DHT22;18003;-33.830;151.202;2023-04-16T07:52:17;21.10;97.80
25668;DHT22;18003;-33.830;151.202;2023-04-16T07:54:47;21.10;97.20
25668;DHT22;18003;-33.830;151.202;2023-04-16T07:57:18;21.10;97.10
25668;DHT22;18003;-33.830;151.202;2023-04-16T07:59:48;21.10;96.20
25668;DHT22;18003;-33.830;151.202;2023-04-16T08:02:18;21.10;96.40
25668;DHT22;18003;-33.830;151.202;2023-04-16T08:04:47;21.10;96.80
25668;DHT22;18003;-33.830;151.202;2023-04-16T08:07:17;21.10;96.60
25668;DHT22;18003;-33.830;151.202;2023-04-16T08:09:51;21.00;96.40
25668;DHT22;18003;-33.830;151.202;2023-04-16T08:12:21;21.00;96.00
25668;DHT22;18003;-33.830;151.202;2023-04-16T08:14:51;21.00;96.00
25668;DHT22;18003;-33.830;151.202;2023-04-16T08:17:20;21.00;96.00
25668;DHT22;18003;-33.830;151.202;2023-04-16T08:19:50;21.00;96.20
25668;DHT22;18003;-33.830;151.202;2023-04-16T08:22:20;20.90;95.40
25668;DHT22;18003;-33.830;151.202;2023-04-16T08:24:50;20.90;96.10
25668;DHT22;18003;-33.830;151.202;2023-04-16T08:27:20;20.90;96.20
25668;DHT22;18003;-33.830;151.202;2023-04-16T08:29:49;20.90;95.90
25668;DHT22;18003;-33.830;151.202;2023-04-16T08:32:19;20.90;95.70
25668;DHT22;18003;-33.830;151.202;2023-04-16T08:34:49;20.90;95.80
25668;DHT22;18003;-33.830;151.202;2023-04-16T08:37:19;20.90;95.30
25668;DHT22;18003;-33.830;151.202;2023-04-16T08:39:48;20.90;95.80
25668;DHT22;18003;-33.830;151.202;2023-04-16T08:42:31;20.90;95.80
25668;DHT22;18003;-33.830;151.202;2023-04-16T08:45:03;20.80;96.00
25668;DHT22;18003;-33.830;151.202;2023-04-16T08:47:29;20.80;95.80
25668;DHT22;18003;-33.830;151.202;2023-04-16T08:50:02;20.80;96.00
25668;DHT22;18003;-33.830;151.202;2023-04-16T08:52:32;20.80;96.00
25668;DHT22;18003;-33.830;151.202;2023-04-16T08:55:08;20.80;96.00
25668;DHT22;18003;-33.830;151.202;2023-04-16T08:57:46;20.80;95.80
25668;DHT22;18003;-33.830;151.202;2023-04-16T09:00:11;20.80;96.50
25668;DHT22;18003;-33.830;151.202;2023-04-16T09:02:42;20.80;96.10
25668;DHT22;18003;-33.830;151.202;2023-04-16T09:05:13;20.80;96.30
25668;DHT22;18003;-33.830;151.202;2023-04-16T09:07:48;20.80;96.00
25668;DHT22;18003;-33.830;151.202;2023-04-16T09:10:19;20.70;96.00
25668;DHT22;18003;-33.830;151.202;2023-04-16T09:12:50;20.70;96.30
25668;DHT22;18003;-33.830;151.202;2023-04-16T09:15:20;20.70;97.10
25668;DHT22;18003;-33.830;151.202;2023-04-16T09:17:54;20.60;97.30
25668;DHT22;18003;-33.830;151.202;2023-04-16T09:20:24;20.60;97.40
25668;DHT22;18003;-33.830;151.202;2023-04-16T09:22:54;20.60;97.60
25668;DHT22;18003;-33.830;151.202;2023-04-16T09:25:25;20.60;97.70
25668;DHT22;18003;-33.830;151.202;2023-04-16T09:27:55;20.60;97.60
25668;DHT22;18003;-33.830;151.202;2023-04-16T09:30:26;20.60;97.70
25668;DHT22;18003;-33.830;151.202;2023-04-16T09:33:14;20.60;97.80
25668;DHT22;18003;-33.830;151.202;2023-04-16T09:35:48;20.50;98.00
25668;DHT22;18003;-33.830;151.202;2023-04-16T09:38:19;20.50;99.10
25668;DHT22;18003;-33.830;151.202;2023-04-16T09:41:04;20.50;98.70
25668;DHT22;18003;-33.830;151.202;2023-04-16T09:43:21;20.40;99.50
25668;DHT22;18003;-33.830;151.202;2023-04-16T09:45:54;20.40;99.90
25668;DHT22;18003;-33.830;151.202;2023-04-16T09:48:34;20.40;99.70
25668;DHT22;18003;-33.830;151.202;2023-04-16T09:51:04;20.40;99.40
25668;DHT22;18003;-33.830;151.202;2023-04-16T09:53:35;20.40;99.30
25668;DHT22;18003;-33.830;151.202;2023-04-16T09:56:06;20.40;99.50
25668;DHT22;18003;-33.830;151.202;2023-04-16T09:58:39;20.30;99.90
25668;DHT22;18003;-33.830;151.202;2023-04-16T10:01:12;20.30;99.90
25668;DHT22;18003;-33.830;151.202;2023-04-16T10:03:43;20.20;99.90
25668;DHT22;18003;-33.830;151.202;2023-04-16T10:06:15;20.20;99.90
25668;DHT22;18003;-33.830;151.202;2023-04-16T10:08:49;20.20;99.90
25668;DHT22;18003;-33.830;151.202;2023-04-16T10:11:20;20.20;99.90
25668;DHT22;18003;-33.830;151.202;2023-04-16T10:13:50;20.20;99.70
25668;DHT22;18003;-33.830;151.202;2023-04-16T10:16:20;20.30;99.80
25668;DHT22;18003;-33.830;151.202;2023-04-16T10:18:50;20.20;99.50
25668;DHT22;18003;-33.830;151.202;2023-04-16T10:21:21;20.10;98.90
25668;DHT22;18003;-33.830;151.202;2023-04-16T10:23:51;20.20;98.70
25668;DHT22;18003;-33.830;151.202;2023-04-16T10:26:21;20.20;98.60
25668;DHT22;18003;-33.830;151.202;2023-04-16T10:28:52;20.20;98.40
25668;DHT22;18003;-33.830;151.202;2023-04-16T10:31:23;20.20;98.40
25668;DHT22;18003;-33.830;151.202;2023-04-16T10:33:53;20.20;97.70
25668;DHT22;18003;-33.830;151.202;2023-04-16T10:36:24;20.20;97.60
25668;DHT22;18003;-33.830;151.202;2023-04-16T10:38:58;20.20;97.60
25668;DHT22;18003;-33.830;151.202;2023-04-16T10:41:28;20.20;97.80
25668;DHT22;18003;-33.830;151.202;2023-04-16T10:44:07;20.20;97.80
25668;DHT22;18003;-33.830;151.202;2023-04-16T10:46:41;20.20;97.70
25668;DHT22;18003;-33.830;151.202;2023-04-16T10:49:19;20.20;97.80
25668;DHT22;18003;-33.830;151.202;2023-04-16T10:51:59;20.20;98.30
25668;DHT22;18003;-33.830;151.202;2023-04-16T10:54:31;20.10;98.00
25668;DHT22;18003;-33.830;151.202;2023-04-16T10:57:05;20.10;98.60
25668;DHT22;18003;-33.830;151.202;2023-04-16T10:59:36;20.20;98.60
25668;DHT22;18003;-33.830;151.202;2023-04-16T11:02:13;20.10;98.40
25668;DHT22;18003;-33.830;151.202;2023-04-16T11:04:44;20.10;99.90
25668;DHT22;18003;-33.830;151.202;2023-04-16T11:07:18;20.10;99.90
25668;DHT22;18003;-33.830;151.202;2023-04-16T11:10:10;20.10;99.90
25668;DHT22;18003;-33.830;151.202;2023-04-16T11:12:38;20.00;99.90
25668;DHT22;18003;-33.830;151.202;2023-04-16T11:17:51;20.00;99.90
25668;DHT22;18003;-33.830;151.202;2023-04-16T11:20:22;20.00;99.90
25668;DHT22;18003;-33.830;151.202;2023-04-16T11:22:53;19.90;99.90
25668;DHT22;18003;-33.830;151.202;2023-04-16T11:25:24;19.90;99.90
25668;DHT22;18003;-33.830;151.202;2023-04-16T11:27:54;19.90;99.90
25668;DHT22;18003;-33.830;151.202;2023-04-16T11:30:32;19.90;99.90
25668;DHT22;18003;-33.830;151.202;2023-04-16T11:33:10;19.90;99.90
25668;DHT22;18003;-33.830;151.202;2023-04-16T11:35:40;19.90;99.90
25668;DHT22;18003;-33.830;151.202;2023-04-16T11:38:10;19.80;99.90
25668;DHT22;18003;-33.830;151.202;2023-04-16T11:40:41;19.80;99.90
25668;DHT22;18003;-33.830;151.202;2023-04-16T11:43:14;19.80;99.90
25668;DHT22;18003;-33.830;151.202;2023-04-16T11:46:46;19.80;99.90
25668;DHT22;18003;-33.830;151.202;2023-04-16T11:48:30;19.80;99.90
25668;DHT22;18003;-33.830;151.202;2023-04-16T11:50:59;19.80;99.90
25668;DHT22;18003;-33.830;151.202;2023-04-16T11:53:31;19.80;99.90
25668;DHT22;18003;-33.830;151.202;2023-04-16T11:56:01;19.80;99.90
25668;DHT22;18003;-33.830;151.202;2023-04-16T11:58:31;19.80;99.90
25668;DHT22;18003;-33.830;151.202;2023-04-16T12:01:01;19.80;99.90
25668;DHT22;18003;-33.830;151.202;2023-04-16T12:03:41;19.80;99.90
25668;DHT22;18003;-33.830;151.202;2023-04-16T12:06:12;19.80;99.90
25668;DHT22;18003;-33.830;151.202;2023-04-16T12:08:43;19.80;99.90
25668;DHT22;18003;-33.830;151.202;2023-04-16T12:11:13;19.80;99.90
25668;DHT22;18003;-33.830;151.202;2023-04-16T12:13:42;19.80;99.90
25668;DHT22;18003;-33.830;151.202;2023-04-16T12:16:18;19.80;99.90
25668;DHT22;18003;-33.830;151.202;2023-04-16T12:19:01;19.80;99.90
25668;DHT22;18003;-33.830;151.202;2023-04-16T12:21:38;19.80;99.90
25668;DHT22;18003;-33.830;151.202;2023-04-16T12:24:08;19.80;99.90
25668;DHT22;18003;-33.830;151.202;2023-04-16T12:26:53;19.70;99.90
25668;DHT22;18003;-33.830;151.202;2023-04-16T12:29:30;19.80;99.90
25668;DHT22;18003;-33.830;151.202;2023-04-16T12:32:00;19.80;99.90
25668;DHT22;18003;-33.830;151.202;2023-04-16T12:34:30;19.80;99.90
25668;DHT22;18003;-33.830;151.202;2023-04-16T12:37:06;19.80;99.90
25668;DHT22;18003;-33.830;151.202;2023-04-16T12:39:37;19.80;99.90
25668;DHT22;18003;-33.830;151.202;2023-04-16T12:42:07;19.70;99.90
25668;DHT22;18003;-33.830;151.202;2023-04-16T12:44:38;19.80;99.90
25668;DHT22;18003;-33.830;151.202;2023-04-16T12:47:09;19.70;99.90
25668;DHT22;18003;-33.830;151.202;2023-04-16T12:49:39;19.70;99.90
25668;DHT22;18003;-33.830;151.202;2023-04-16T12:52:09;19.70;99.90
25668;DHT22;18003;-33.830;151.202;2023-04-16T12:54:40;19.70;99.90
25668;DHT22;18003;-33.830;151.202;2023-04-16T12:57:10;19.70;99.90
25668;DHT22;18003;-33.830;151.202;2023-04-16T12:59:40;19.70;99.90
25668;DHT22;18003;-33.830;151.202;2023-04-16T13:02:10;19.70;99.90
25668;DHT22;18003;-33.830;151.202;2023-04-16T13:04:40;19.70;99.90
25668;DHT22;18003;-33.830;151.202;2023-04-16T13:07:10;19.70;99.90
25668;DHT22;18003;-33.830;151.202;2023-04-16T13:09:40;19.70;99.90
25668;DHT22;18003;-33.830;151.202;2023-04-16T13:12:10;19.60;99.90
25668;DHT22;18003;-33.830;151.202;2023-04-16T13:14:40;19.60;99.90
25668;DHT22;18003;-33.830;151.202;2023-04-16T13:17:10;19.70;99.90
25668;DHT22;18003;-33.830;151.202;2023-04-16T13:19:40;19.60;99.90
25668;DHT22;18003;-33.830;151.202;2023-04-16T13:22:09;19.60;99.90
25668;DHT22;18003;-33.830;151.202;2023-04-16T13:24:40;19.60;99.90
25668;DHT22;18003;-33.830;151.202;2023-04-16T13:27:10;19.60;99.90
25668;DHT22;18003;-33.830;151.202;2023-04-16T13:29:41;19.60;99.90
25668;DHT22;18003;-33.830;151.202;2023-04-16T13:32:11;19.60;99.90
25668;DHT22;18003;-33.830;151.202;2023-04-16T13:34:41;19.60;99.90
25668;DHT22;18003;-33.830;151.202;2023-04-16T13:37:11;19.60;99.90
25668;DHT22;18003;-33.830;151.202;2023-04-16T13:39:41;19.60;99.90
25668;DHT22;18003;-33.830;151.202;2023-04-16T13:42:12;19.60;99.90
25668;DHT22;18003;-33.830;151.202;2023-04-16T13:44:42;19.50;99.90
25668;DHT22;18003;-33.830;151.202;2023-04-16T13:47:13;19.50;99.90
25668;DHT22;18003;-33.830;151.202;2023-04-16T13:49:43;19.50;99.90
25668;DHT22;18003;-33.830;151.202;2023-04-16T13:52:13;19.60;99.90
25668;DHT22;18003;-33.830;151.202;2023-04-16T13:54:43;19.60;99.90
25668;DHT22;18003;-33.830;151.202;2023-04-16T13:57:14;19.50;99.90
25668;DHT22;18003;-33.830;151.202;2023-04-16T13:59:45;19.50;99.90
25668;DHT22;18003;-33.830;151.202;2023-04-16T14:02:15;19.50;99.90
25668;DHT22;18003;-33.830;151.202;2023-04-16T14:04:45;19.60;99.90
25668;DHT22;18003;-33.830;151.202;2023-04-16T14:07:15;19.50;99.90
25668;DHT22;18003;-33.830;151.202;2023-04-16T14:09:45;19.50;99.90
25668;DHT22;18003;-33.830;151.202;2023-04-16T14:12:15;19.50;99.90
25668;DHT22;18003;-33.830;151.202;2023-04-16T14:14:45;19.50;99.90
25668;DHT22;18003;-33.830;151.202;2023-04-16T14:17:15;19.50;99.90
25668;DHT22;18003;-33.830;151.202;2023-04-16T14:19:45;19.50;99.90
25668;DHT22;18003;-33.830;151.202;2023-04-16T14:22:15;19.50;99.90
25668;DHT22;18003;-33.830;151.202;2023-04-16T14:24:45;19.40;99.90
25668;DHT22;18003;-33.830;151.202;2023-04-16T14:27:15;19.40;99.90
25668;DHT22;18003;-33.830;151.202;2023-04-16T14:29:45;19.40;99.90
25668;DHT22;18003;-33.830;151.202;2023-04-16T14:32:15;19.40;99.90
25668;DHT22;18003;-33.830;151.202;2023-04-16T14:34:45;19.40;99.90
25668;DHT22;18003;-33.830;151.202;2023-04-16T14:37:16;19.40;99.90
25668;DHT22;18003;-33.830;151.202;2023-04-16T14:39:46;19.40;99.90
25668;DHT22;18003;-33.830;151.202;2023-04-16T14:42:16;19.40;99.90
25668;DHT22;18003;-33.830;151.202;2023-04-16T14:44:46;19.40;99.90
25668;DHT22;18003;-33.830;151.202;2023-04-16T14:47:16;19.40;99.90
25668;DHT22;18003;-33.830;151.202;2023-04-16T14:49:46;19.40;99.90
25668;DHT22;18003;-33.830;151.202;2023-04-16T14:52:16;19.40;99.90
25668;DHT22;18003;-33.830;151.202;2023-04-16T14:54:46;19.30;99.90
25668;DHT22;18003;-33.830;151.202;2023-04-16T14:57:16;19.30;99.90
25668;DHT22;18003;-33.830;151.202;2023-04-16T14:59:47;19.30;99.90
25668;DHT22;18003;-33.830;151.202;2023-04-16T15:02:17;19.30;99.90
25668;DHT22;18003;-33.830;151.202;2023-04-16T15:04:47;19.30;99.90
25668;DHT22;18003;-33.830;151.202;2023-04-16T15:07:17;19.30;99.90
25668;DHT22;18003;-33.830;151.202;2023-04-16T15:09:46;19.30;99.90
25668;DHT22;18003;-33.830;151.202;2023-04-16T15:12:16;19.30;99.90